createdAt,value
2019-03-01T00:00:59.591Z,10.84
2019-03-01T00:03:28.629Z,10.84
2019-03-01T00:06:16.780Z,10.73
2019-03-01T00:09:04.749Z,10.78
2019-03-01T00:11:53.826Z,10.67
2019-03-01T00:14:47.735Z,10.65
2019-03-01T00:17:31.179Z,10.67
2019-03-01T00:20:18.026Z,10.71
2019-03-01T00:23:12.376Z,10.71
2019-03-01T00:26:01.757Z,10.67
2019-03-01T00:28:48.286Z,10.57
2019-03-01T00:31:31.735Z,10.54
2019-03-01T00:34:12.090Z,10.54
2019-03-01T00:37:01.780Z,10.55
2019-03-01T00:39:48.546Z,10.27
2019-03-01T00:42:28.925Z,10.45
2019-03-01T00:44:57.286Z,10.12
2019-03-01T00:47:25.614Z,10.12
2019-03-01T00:49:54.097Z,10.35
2019-03-01T00:52:22.536Z,10.41
2019-03-01T00:54:50.913Z,10.31
2019-03-01T00:57:19.212Z,10.27
2019-03-01T00:59:47.542Z,10.28
2019-03-01T01:02:15.834Z,10.28
2019-03-01T01:04:44.143Z,10.17
2019-03-01T01:07:12.438Z,10.28
2019-03-01T01:09:40.756Z,10.25
2019-03-01T01:12:09.130Z,10.27
2019-03-01T01:14:37.444Z,10.36
2019-03-01T01:17:06.002Z,10.38
2019-03-01T01:19:34.353Z,10.38
2019-03-01T01:22:02.682Z,10.43
2019-03-01T01:24:31.168Z,10.15
2019-03-01T01:26:59.525Z,10.26
2019-03-01T01:29:28.002Z,10.17
2019-03-01T01:31:56.392Z,10.22
2019-03-01T01:34:24.793Z,10.33
2019-03-01T01:36:53.178Z,10.33
2019-03-01T01:39:23.111Z,10.25
2019-03-01T01:41:51.712Z,10.35
2019-03-01T01:44:20.205Z,10.31
2019-03-01T01:46:48.521Z,10.31
2019-03-01T01:49:16.884Z,10.11
2019-03-01T01:51:45.242Z,10.11
2019-03-01T01:54:13.539Z,9.91
2019-03-01T01:56:42.029Z,9.91
2019-03-01T01:59:10.311Z,9.73
2019-03-01T02:01:38.642Z,9.71
2019-03-01T02:04:07.085Z,9.66
2019-03-01T02:06:35.399Z,9.52
2019-03-01T02:09:04.521Z,9.41
2019-03-01T02:11:35.248Z,9.44
2019-03-01T02:14:02.834Z,9.44
2019-03-01T02:16:31.164Z,9.45
2019-03-01T02:18:59.523Z,9.36
2019-03-01T02:21:27.925Z,9.52
2019-03-01T02:23:56.311Z,9.52
2019-03-01T02:26:24.865Z,9.42
2019-03-01T02:28:53.207Z,9.48
2019-03-01T02:31:21.631Z,9.48
2019-03-01T02:33:49.924Z,9.34
2019-03-01T02:36:18.486Z,9.49
2019-03-01T02:38:46.788Z,9.49
2019-03-01T02:41:15.242Z,9.57
2019-03-01T02:43:43.578Z,9.74
2019-03-01T02:46:11.882Z,9.74
2019-03-01T02:48:40.248Z,9.65
2019-03-01T02:51:08.531Z,9.65
2019-03-01T02:53:36.868Z,9.81
2019-03-01T02:56:05.158Z,9.90
2019-03-01T02:58:33.527Z,9.92
2019-03-01T03:01:01.902Z,9.92
2019-03-01T03:03:30.277Z,9.88
2019-03-01T03:06:12.195Z,9.87
2019-03-01T03:08:42.391Z,9.87
2019-03-01T03:11:10.682Z,9.88
2019-03-01T03:13:39.335Z,9.90
2019-03-01T03:16:07.623Z,9.83
2019-03-01T03:18:36.009Z,9.83
2019-03-01T03:21:04.404Z,9.73
2019-03-01T03:23:32.771Z,9.59
2019-03-01T03:26:01.076Z,9.56
2019-03-01T03:28:29.805Z,9.56
2019-03-01T03:30:58.089Z,9.60
2019-03-01T03:33:26.403Z,9.56
2019-03-01T03:35:55.077Z,9.56
2019-03-01T03:38:23.393Z,9.67
2019-03-01T03:40:51.731Z,9.65
2019-03-01T03:43:22.765Z,9.59
2019-03-01T03:45:50.161Z,9.59
2019-03-01T03:48:18.513Z,9.48
2019-03-01T03:50:46.855Z,9.40
2019-03-01T03:53:15.160Z,9.40
2019-03-01T03:55:43.496Z,9.28
2019-03-01T03:58:11.850Z,9.09
2019-03-01T04:00:40.433Z,9.27
2019-03-01T04:03:08.806Z,9.27
2019-03-01T04:05:37.206Z,9.36
2019-03-01T04:08:05.569Z,9.36
2019-03-01T04:10:33.877Z,9.42
2019-03-01T04:13:02.250Z,9.42
2019-03-01T04:15:30.650Z,9.28
2019-03-01T04:17:59.170Z,9.13
2019-03-01T04:20:27.537Z,9.16
2019-03-01T04:22:55.914Z,9.16
2019-03-01T04:25:24.200Z,8.98
2019-03-01T04:27:53.434Z,9.07
2019-03-01T04:30:22.005Z,9.19
2019-03-01T04:32:50.294Z,9.19
2019-03-01T04:35:18.696Z,9.26
2019-03-01T04:37:47.054Z,9.42
2019-03-01T04:40:15.901Z,9.42
2019-03-01T04:42:44.269Z,9.46
2019-03-01T04:45:14.986Z,9.54
2019-03-01T04:47:43.854Z,9.43
2019-03-01T04:50:12.848Z,9.62
2019-03-01T04:52:42.025Z,9.62
2019-03-01T04:55:13.743Z,9.65
2019-03-01T04:57:42.210Z,9.85
2019-03-01T05:00:15.913Z,9.87
2019-03-01T05:02:44.469Z,9.95
2019-03-01T05:05:15.334Z,10.01
2019-03-01T05:07:43.713Z,10.01
2019-03-01T05:10:13.264Z,10.00
2019-03-01T05:12:41.694Z,9.98
2019-03-01T05:15:14.549Z,9.95
2019-03-01T05:17:43.203Z,9.95
2019-03-01T05:20:11.660Z,9.96
2019-03-01T05:22:39.962Z,9.96
2019-03-01T05:25:09.590Z,10.00
2019-03-01T05:27:37.876Z,9.93
2019-03-01T05:30:14.625Z,9.93
2019-03-01T05:32:42.998Z,10.04
2019-03-01T05:35:11.792Z,10.02
2019-03-01T05:37:40.071Z,10.02
2019-03-01T05:40:17.740Z,10.07
2019-03-01T05:42:46.204Z,10.07
2019-03-01T05:45:23.186Z,9.86
2019-03-01T05:47:51.497Z,9.84
2019-03-01T05:50:20.069Z,9.67
2019-03-01T05:52:48.382Z,9.71
2019-03-01T05:55:16.774Z,9.66
2019-03-01T05:58:21.500Z,9.76
2019-03-01T06:00:51.301Z,9.72
2019-03-01T06:03:31.956Z,9.76
2019-03-01T06:06:00.239Z,9.70
2019-03-01T06:08:52.653Z,9.54
2019-03-01T06:11:27.076Z,9.54
2019-03-01T06:14:07.269Z,9.67
2019-03-01T06:16:40.204Z,9.67
2019-03-01T06:19:24.119Z,9.75
2019-03-01T06:22:12.196Z,9.69
2019-03-01T06:25:05.030Z,9.74
2019-03-01T06:27:48.600Z,9.69
2019-03-01T06:30:29.023Z,9.67
2019-03-01T06:33:03.202Z,9.62
2019-03-01T06:35:46.482Z,9.72
2019-03-01T06:38:41.950Z,9.86
2019-03-01T06:41:40.965Z,9.86
2019-03-01T06:44:12.483Z,9.79
2019-03-01T06:46:54.459Z,9.69
2019-03-01T06:49:24.398Z,9.85
2019-03-01T06:51:52.875Z,9.85
2019-03-01T06:54:21.169Z,9.79
2019-03-01T06:56:49.568Z,9.79
2019-03-01T06:59:18.174Z,9.95
2019-03-01T07:01:46.484Z,10.04
2019-03-01T07:04:14.853Z,9.83
2019-03-01T07:06:43.140Z,9.92
2019-03-01T07:09:11.516Z,9.93
2019-03-01T07:11:39.811Z,9.83
2019-03-01T07:14:08.194Z,9.83
2019-03-01T07:16:36.630Z,9.37
2019-03-01T07:19:05.137Z,9.37
2019-03-01T07:21:33.444Z,9.37
2019-03-01T07:24:01.861Z,9.37
2019-03-01T07:26:30.136Z,9.44
2019-03-01T07:28:59.151Z,9.25
2019-03-01T07:31:27.435Z,9.25
2019-03-01T07:33:55.820Z,9.18
2019-03-01T07:36:24.180Z,9.25
2019-03-01T07:38:52.576Z,9.24
2019-03-01T07:41:20.877Z,9.25
2019-03-01T07:43:49.211Z,9.25
2019-03-01T07:46:17.664Z,9.28
2019-03-01T07:48:45.942Z,9.35
2019-03-01T07:51:14.263Z,9.42
2019-03-01T07:53:42.577Z,9.50
2019-03-01T07:56:10.878Z,9.50
2019-03-01T07:58:39.359Z,9.45
2019-03-01T08:01:07.767Z,9.45
2019-03-01T08:03:36.056Z,9.38
2019-03-01T08:06:04.491Z,9.40
2019-03-01T08:08:34.929Z,9.29
2019-03-01T08:11:02.964Z,9.09
2019-03-01T08:13:31.596Z,9.14
2019-03-01T08:16:00.102Z,8.98
2019-03-01T08:18:28.379Z,8.98
2019-03-01T08:20:56.785Z,8.92
2019-03-01T08:23:25.166Z,8.92
2019-03-01T08:25:55.591Z,8.99
2019-03-01T08:28:23.840Z,9.00
2019-03-01T08:30:52.151Z,8.99
2019-03-01T08:33:20.537Z,8.99
2019-03-01T08:35:48.935Z,9.11
2019-03-01T08:38:17.256Z,9.12
2019-03-01T08:40:46.702Z,8.93
2019-03-01T08:43:15.741Z,8.86
2019-03-01T08:45:44.256Z,8.86
2019-03-01T08:48:12.704Z,9.08
2019-03-01T08:50:41.126Z,9.12
2019-03-01T08:53:11.524Z,9.12
2019-03-01T08:55:39.848Z,9.08
2019-03-01T08:58:08.179Z,9.26
2019-03-01T09:00:47.932Z,9.30
2019-03-01T09:03:26.871Z,9.35
2019-03-01T09:05:55.142Z,9.31
2019-03-01T09:08:23.750Z,9.40
2019-03-01T09:10:52.097Z,9.44
2019-03-01T09:13:20.642Z,9.68
2019-03-01T09:15:49.405Z,9.68
2019-03-01T09:18:18.729Z,9.44
2019-03-01T09:20:47.109Z,9.68
2019-03-01T09:23:22.900Z,10.15
2019-03-01T09:25:45.762Z,10.15
2019-03-01T09:28:14.174Z,10.48
2019-03-01T09:30:43.548Z,10.47
2019-03-01T09:33:12.655Z,10.35
2019-03-01T09:36:00.647Z,10.84
2019-03-01T09:38:28.985Z,10.84
2019-03-01T09:40:57.677Z,10.81
2019-03-01T09:43:27.963Z,10.88
2019-03-01T09:45:56.844Z,10.63
2019-03-01T09:48:25.161Z,10.54
2019-03-01T09:50:53.475Z,10.54
2019-03-01T09:53:21.795Z,10.55
2019-03-01T09:55:50.138Z,10.55
2019-03-01T09:58:18.494Z,10.55
2019-03-01T10:00:56.292Z,10.32
2019-03-01T10:03:20.464Z,10.43
2019-03-01T10:05:48.764Z,10.48
2019-03-01T10:08:17.444Z,10.30
2019-03-01T10:10:45.781Z,10.30
2019-03-01T10:13:14.082Z,10.31
2019-03-01T10:15:42.472Z,10.07
2019-03-01T10:18:10.933Z,10.07
2019-03-01T10:20:39.424Z,10.07
2019-03-01T10:23:07.776Z,10.07
2019-03-01T10:25:36.083Z,9.90
2019-03-01T10:28:04.807Z,9.92
2019-03-01T10:30:33.195Z,10.03
2019-03-01T10:33:01.468Z,10.03
2019-03-01T10:35:29.938Z,9.89
2019-03-01T10:37:58.304Z,9.77
2019-03-01T10:40:27.761Z,9.77
2019-03-01T10:42:56.061Z,9.69
2019-03-01T10:45:29.420Z,9.67
2019-03-01T10:47:57.732Z,9.69
2019-03-01T10:50:26.082Z,9.69
2019-03-01T10:52:56.234Z,9.67
2019-03-01T10:55:24.594Z,9.68
2019-03-01T10:57:52.978Z,9.75
2019-03-01T11:00:31.936Z,9.66
2019-03-01T11:03:00.330Z,9.29
2019-03-01T11:05:28.869Z,9.35
2019-03-01T11:07:57.471Z,9.51
2019-03-01T11:10:34.186Z,9.51
2019-03-01T11:13:02.652Z,9.69
2019-03-01T11:15:31.163Z,9.73
2019-03-01T11:17:59.493Z,9.72
2019-03-01T11:20:27.949Z,9.69
2019-03-01T11:22:56.341Z,9.58
2019-03-01T11:25:25.986Z,9.52
2019-03-01T11:27:54.855Z,9.27
2019-03-01T11:30:25.749Z,8.90
2019-03-01T11:32:53.957Z,8.86
2019-03-01T11:35:22.394Z,8.86
2019-03-01T11:37:50.734Z,8.90
2019-03-01T11:40:24.659Z,8.85
2019-03-01T11:42:53.060Z,8.83
2019-03-01T11:45:21.375Z,8.93
2019-03-01T11:47:49.931Z,8.99
2019-03-01T11:50:22.822Z,9.00
2019-03-01T11:52:51.201Z,8.90
2019-03-01T11:55:19.644Z,8.98
2019-03-01T11:57:48.410Z,9.07
2019-03-01T12:00:22.613Z,9.17
2019-03-01T12:02:51.457Z,9.17
2019-03-01T12:05:20.191Z,9.18
2019-03-01T12:07:48.945Z,9.18
2019-03-01T12:10:30.798Z,9.31
2019-03-01T12:12:59.351Z,9.28
2019-03-01T12:15:27.892Z,9.28
2019-03-01T12:17:56.252Z,9.49
2019-03-01T12:20:31.614Z,9.59
2019-03-01T12:22:59.964Z,9.55
2019-03-01T12:25:28.293Z,9.59
2019-03-01T12:27:56.655Z,9.55
2019-03-01T12:30:27.191Z,9.46
2019-03-01T12:32:55.499Z,9.46
2019-03-01T12:35:24.301Z,9.48
2019-03-01T12:37:52.698Z,9.63
2019-03-01T12:40:26.026Z,9.69
2019-03-01T12:42:54.306Z,9.73
2019-03-01T12:45:22.764Z,9.73
2019-03-01T12:47:51.323Z,9.71
2019-03-01T12:50:19.827Z,9.71
2019-03-01T12:52:49.631Z,9.74
2019-03-01T12:55:22.892Z,9.75
2019-03-01T12:57:51.428Z,9.72
2019-03-01T13:00:28.746Z,9.69
2019-03-01T13:02:57.108Z,9.69
2019-03-01T13:05:28.877Z,9.51
2019-03-01T13:07:56.190Z,9.64
2019-03-01T13:10:27.349Z,9.61
2019-03-01T13:12:58.698Z,9.75
2019-03-01T13:15:25.994Z,9.75
2019-03-01T13:17:54.304Z,9.83
2019-03-01T13:20:22.888Z,10.20
2019-03-01T13:22:51.264Z,10.20
2019-03-01T13:25:19.595Z,10.03
2019-03-01T13:27:48.831Z,10.03
2019-03-01T13:30:23.020Z,9.97
2019-03-01T13:32:51.363Z,9.97
2019-03-01T13:35:22.382Z,10.19
2019-03-01T13:37:52.061Z,10.19
2019-03-01T13:40:24.424Z,10.03
2019-03-01T13:42:52.086Z,10.05
2019-03-01T13:45:22.811Z,9.96
2019-03-01T13:47:51.280Z,9.96
2019-03-01T13:50:20.530Z,9.94
2019-03-01T13:52:50.198Z,10.03
2019-03-01T13:55:21.933Z,10.11
2019-03-01T13:57:49.883Z,10.11
2019-03-01T14:00:20.033Z,10.25
2019-03-01T14:02:48.600Z,10.34
2019-03-01T14:05:17.602Z,10.54
2019-03-01T14:07:46.356Z,10.54
2019-03-01T14:10:16.977Z,10.47
2019-03-01T14:12:45.429Z,10.75
2019-03-01T14:15:17.944Z,11.21
2019-03-01T14:17:46.763Z,12.30
2019-03-01T14:20:20.353Z,12.30
2019-03-01T14:22:49.076Z,12.09
2019-03-01T14:25:18.257Z,12.17
2019-03-01T14:27:46.776Z,12.47
2019-03-01T14:30:29.127Z,12.47
2019-03-01T14:32:57.780Z,12.52
2019-03-01T14:35:26.850Z,12.57
2019-03-01T14:37:55.882Z,12.37
2019-03-01T14:40:24.494Z,12.39
2019-03-01T14:42:53.110Z,12.48
2019-03-01T14:45:32.463Z,12.51
2019-03-01T14:48:00.957Z,12.48
2019-03-01T14:50:33.777Z,12.60
2019-03-01T14:53:00.470Z,12.58
2019-03-01T14:55:38.399Z,12.28
2019-03-01T14:58:15.763Z,12.41
2019-03-01T15:00:55.981Z,12.06
2019-03-01T15:03:33.357Z,12.05
2019-03-01T15:06:01.861Z,12.20
2019-03-01T15:08:30.290Z,12.39
2019-03-01T15:11:04.026Z,12.44
2019-03-01T15:13:31.357Z,12.39
2019-03-01T15:16:04.833Z,12.42
2019-03-01T15:18:32.346Z,12.55
2019-03-01T15:21:02.787Z,12.55
2019-03-01T15:23:31.914Z,12.76
2019-03-01T15:26:00.388Z,13.01
2019-03-01T15:28:28.919Z,13.06
2019-03-01T15:30:57.791Z,13.04
2019-03-01T15:33:26.159Z,12.86
2019-03-01T15:35:54.545Z,12.46
2019-03-01T15:38:23.924Z,12.46
2019-03-01T15:40:53.225Z,12.45
2019-03-01T15:43:22.184Z,12.50
2019-03-01T15:45:50.636Z,12.63
2019-03-01T15:48:18.993Z,12.73
2019-03-01T15:50:47.375Z,12.60
2019-03-01T15:53:15.705Z,12.42
2019-03-01T15:55:44.156Z,12.59
2019-03-01T15:58:12.580Z,12.36
2019-03-01T16:00:40.949Z,12.52
2019-03-01T16:03:09.884Z,12.24
2019-03-01T16:05:38.372Z,12.24
2019-03-01T16:08:08.357Z,12.23
2019-03-01T16:10:37.162Z,12.18
2019-03-01T16:13:08.401Z,12.02
2019-03-01T16:15:38.920Z,11.72
2019-03-01T16:18:06.430Z,11.58
2019-03-01T16:20:34.869Z,11.36
2019-03-01T16:23:03.607Z,11.29
2019-03-01T16:25:31.961Z,11.29
2019-03-01T16:28:00.322Z,11.34
2019-03-01T16:30:28.791Z,11.34
2019-03-01T16:32:57.231Z,11.18
2019-03-01T16:35:25.606Z,11.33
2019-03-01T16:37:57.808Z,11.27
2019-03-01T16:40:25.863Z,11.27
2019-03-01T16:42:54.726Z,11.44
2019-03-01T16:45:23.364Z,11.09
2019-03-01T16:47:51.962Z,10.99
2019-03-01T16:50:20.806Z,11.06
2019-03-01T16:52:49.206Z,11.18
2019-03-01T16:55:24.368Z,11.01
2019-03-01T16:57:54.972Z,10.95
2019-03-01T17:00:23.942Z,10.75
2019-03-01T17:03:10.117Z,10.73
2019-03-01T17:05:38.937Z,10.51
2019-03-01T17:08:08.191Z,10.59
2019-03-01T17:10:36.588Z,10.48
2019-03-01T17:13:05.003Z,10.48
2019-03-01T17:15:35.252Z,10.43
2019-03-01T17:18:03.713Z,10.46
2019-03-01T17:20:37.488Z,10.46
2019-03-01T17:23:03.173Z,10.33
2019-03-01T17:25:32.469Z,10.30
2019-03-01T17:28:00.872Z,10.31
2019-03-01T17:30:29.273Z,10.41
2019-03-01T17:32:57.658Z,10.41
2019-03-01T17:35:26.268Z,10.20
2019-03-01T17:37:54.593Z,10.07
2019-03-01T17:40:23.189Z,10.07
2019-03-01T17:42:53.193Z,10.02
2019-03-01T17:45:23.243Z,10.02
2019-03-01T17:47:51.663Z,10.26
2019-03-01T17:50:20.130Z,10.32
2019-03-01T17:52:48.710Z,10.30
2019-03-01T17:55:18.517Z,10.30
2019-03-01T17:57:47.088Z,10.13
2019-03-01T18:00:26.665Z,10.13
2019-03-01T18:02:55.391Z,10.21
2019-03-01T18:05:24.028Z,10.41
2019-03-01T18:07:52.451Z,10.47
2019-03-01T18:10:20.825Z,10.54
2019-03-01T18:12:49.329Z,10.42
2019-03-01T18:15:17.819Z,10.45
2019-03-01T18:17:46.478Z,10.31
2019-03-01T18:20:15.062Z,10.32
2019-03-01T18:22:43.667Z,10.32
2019-03-01T18:25:13.339Z,10.34
2019-03-01T18:27:41.747Z,10.34
2019-03-01T18:30:24.785Z,10.09
2019-03-01T18:32:53.199Z,9.99
2019-03-01T18:35:21.592Z,10.09
2019-03-01T18:37:51.542Z,10.22
2019-03-01T18:40:20.492Z,10.05
2019-03-01T18:42:48.846Z,9.98
2019-03-01T18:45:20.266Z,9.98
2019-03-01T18:47:48.661Z,9.84
2019-03-01T18:50:27.651Z,9.85
2019-03-01T18:52:55.684Z,10.05
2019-03-01T18:55:24.254Z,10.07
2019-03-01T18:57:52.739Z,10.07
2019-03-01T19:00:44.551Z,10.24
2019-03-01T19:03:13.168Z,10.25
2019-03-01T19:05:41.551Z,10.32
2019-03-01T19:08:10.706Z,10.32
2019-03-01T19:10:39.189Z,10.43
2019-03-01T19:13:07.710Z,10.55
2019-03-01T19:15:36.093Z,10.62
2019-03-01T19:18:05.546Z,10.67
2019-03-01T19:20:42.568Z,10.46
2019-03-01T19:23:10.954Z,10.46
2019-03-01T19:25:39.529Z,10.57
2019-03-01T19:28:07.963Z,10.57
2019-03-01T19:30:36.474Z,10.50
2019-03-01T19:33:06.392Z,10.52
2019-03-01T19:35:34.888Z,10.08
2019-03-01T19:38:03.267Z,10.08
2019-03-01T19:40:31.756Z,9.86
2019-03-01T19:43:00.063Z,9.84
2019-03-01T19:45:31.602Z,9.84
2019-03-01T19:48:03.218Z,9.95
2019-03-01T19:50:30.561Z,9.77
2019-03-01T19:52:58.991Z,9.78
2019-03-01T19:55:28.014Z,9.78
2019-03-01T19:57:56.493Z,9.62
2019-03-01T20:00:32.100Z,9.70
2019-03-01T20:03:00.565Z,9.87
2019-03-01T20:05:34.045Z,9.87
2019-03-01T20:08:02.564Z,9.79
2019-03-01T20:10:31.176Z,9.79
2019-03-01T20:12:59.634Z,9.84
